createdAt,value
2023-03-05T03:46:51.411Z,94558.13
2023-03-05T03:49:24.862Z,94557.03
2023-03-05T03:51:54.719Z,94556.91
2023-03-05T03:54:22.758Z,94552.31
2023-03-05T03:56:49.823Z,94553.13
2023-03-05T03:59:16.907Z,94551.22
2023-03-05T04:01:43.753Z,94556.38
2023-03-05T04:04:13.057Z,94560.69
2023-03-05T06:09:10.058Z,94583.66
2023-03-05T06:11:38.599Z,94585.66
2023-03-05T06:14:05.553Z,94583.34
2023-03-05T06:16:32.527Z,94584.72
2023-03-05T06:19:00.396Z,94584.44
2023-03-05T06:21:27.340Z,94592.50
2023-03-05T06:23:54.304Z,94590.63
2023-03-05T06:26:22.565Z,94597.22
2023-03-05T06:28:49.423Z,94599.53
2023-03-05T06:31:22.435Z,94606.94
2023-03-05T06:33:49.652Z,94606.94
2023-03-05T06:36:19.149Z,94598.97
2023-03-05T06:38:48.375Z,94606.50
2023-03-05T06:41:18.461Z,94599.53
2023-03-05T06:43:47.166Z,94601.81
2023-03-05T06:46:20.055Z,94596.81
2023-03-05T06:48:47.935Z,94605.44
2023-03-05T06:51:24.859Z,94603.53
2023-03-05T06:53:53.447Z,94604.88
2023-03-05T06:56:21.336Z,94602.06
2023-03-05T06:58:50.867Z,94605.16
2023-03-05T07:01:18.958Z,94613.09
2023-03-05T07:03:49.945Z,94612.13
2023-03-05T07:06:16.953Z,94602.41
2023-03-05T07:08:47.369Z,94594.84
2023-03-05T07:11:19.407Z,94611.84
2023-03-05T07:13:49.076Z,94600.78
2023-03-05T07:16:22.704Z,94616.59
2023-03-05T07:18:49.740Z,94609.03
2023-03-05T07:21:20.130Z,94610.38
2023-03-05T07:23:47.425Z,94614.09
2023-03-05T07:26:14.725Z,94611.91
2023-03-05T07:28:43.690Z,94614.22
2023-03-05T07:31:27.590Z,94594.53
2023-03-05T07:33:54.606Z,94606.41
2023-03-05T07:36:21.711Z,94599.06
2023-03-05T07:38:48.707Z,94608.84
2023-03-05T07:41:21.452Z,94609.56
2023-03-05T07:43:50.081Z,94603.31
2023-03-05T07:46:19.629Z,94604.03
2023-03-05T07:48:46.695Z,94587.88
2023-03-05T07:51:17.237Z,94591.75
2023-03-05T07:53:45.435Z,94588.06
2023-03-05T07:56:12.761Z,94594.06
2023-03-05T07:58:39.687Z,94603.94
2023-03-05T08:01:14.110Z,94608.19
2023-03-05T08:03:42.472Z,94601.06
2023-03-05T08:06:10.888Z,94590.13
2023-03-05T08:08:38.136Z,94609.41
2023-03-05T08:11:11.902Z,94597.06
2023-03-05T08:13:39.488Z,94592.94
2023-03-05T08:16:15.688Z,94612.34
2023-03-05T08:18:42.924Z,94598.81
2023-03-05T08:21:27.640Z,94595.47
2023-03-05T08:23:54.469Z,94596.06
2023-03-05T08:26:23.425Z,94593.66
2023-03-05T08:28:51.216Z,94586.97
2023-03-05T08:31:21.428Z,94583.28
2023-03-05T08:33:50.080Z,94581.63
2023-03-05T08:36:16.973Z,94586.47
2023-03-05T08:38:44.896Z,94589.03
2023-03-05T08:41:11.892Z,94587.94
2023-03-05T08:43:39.267Z,94574.03
2023-03-05T08:46:06.500Z,94568.22
2023-03-05T08:48:34.695Z,94581.06
2023-03-05T08:51:13.909Z,94569.44
2023-03-05T08:53:42.418Z,94577.81
2023-03-05T08:56:09.547Z,94574.31
2023-03-05T08:58:37.092Z,94579.66
2023-03-05T09:01:04.355Z,94566.53
2023-03-05T09:03:31.339Z,94568.28
2023-03-05T09:06:03.076Z,94552.09
2023-03-05T09:08:30.720Z,94549.03
2023-03-05T09:10:57.758Z,94558.47
2023-03-05T09:13:24.845Z,94532.59
2023-03-05T09:16:00.286Z,94544.88
2023-03-05T09:18:27.817Z,94538.59
2023-03-05T09:20:54.937Z,94538.59
2023-03-05T09:23:22.801Z,94529.81
2023-03-05T09:25:50.188Z,94537.59
2023-03-05T09:28:17.738Z,94536.31
2023-03-05T09:30:44.587Z,94536.00
2023-03-05T09:33:11.616Z,94535.84
2023-03-05T09:35:38.592Z,94509.22
2023-03-05T09:38:05.545Z,94530.19
2023-03-05T09:40:44.241Z,94527.63
2023-03-05T09:43:34.845Z,94530.88
2023-03-05T09:46:40.153Z,94513.75
2023-03-05T09:49:31.815Z,94508.94
2023-03-05T09:52:18.273Z,94518.94
2023-03-05T09:54:49.495Z,94505.72
2023-03-05T09:57:22.664Z,94518.94
2023-03-05T10:00:04.330Z,94512.78
2023-03-05T10:02:46.261Z,94511.53
2023-03-05T10:05:28.992Z,94509.25
2023-03-05T10:08:01.269Z,94507.50
2023-03-05T10:10:40.916Z,94495.72
2023-03-05T10:13:17.073Z,94501.22
2023-03-05T10:15:58.956Z,94497.97
2023-03-05T10:18:59.856Z,94499.41
2023-03-05T10:22:13.169Z,94491.50
2023-03-05T10:24:51.915Z,94484.41
2023-03-05T10:27:43.136Z,94479.25
2023-03-05T10:30:24.007Z,94476.81
2023-03-05T10:33:11.448Z,94468.28
2023-03-05T10:36:01.354Z,94453.75
2023-03-05T10:38:40.037Z,94457.16
2023-03-05T10:41:19.091Z,94453.09
2023-03-05T10:43:55.527Z,94454.81
2023-03-05T10:46:28.364Z,94447.00
2023-03-05T10:49:02.992Z,94438.66
2023-03-05T10:51:48.106Z,94439.31
2023-03-05T10:54:36.088Z,94440.63
2023-03-05T10:57:03.791Z,94428.69
2023-03-05T10:59:32.174Z,94440.59
2023-03-05T11:02:05.763Z,94427.03
2023-03-05T11:04:36.809Z,94436.50
2023-03-05T11:07:27.132Z,94422.50
2023-03-05T11:10:15.429Z,94417.59
2023-03-05T11:12:42.829Z,94415.44
2023-03-05T11:15:09.620Z,94411.31
2023-03-05T11:17:39.690Z,94408.28
2023-03-05T11:20:29.009Z,94407.03
2023-03-05T11:23:06.042Z,94413.81
2023-03-05T11:25:34.888Z,94404.69
2023-03-05T11:28:04.368Z,94402.91
2023-03-05T11:30:35.535Z,94403.91
2023-03-05T11:33:22.782Z,94398.91
2023-03-05T11:35:52.053Z,94392.19
2023-03-05T11:38:28.453Z,94382.53
2023-03-05T11:40:57.409Z,94383.16
2023-03-05T11:43:26.239Z,94387.69
2023-03-05T11:46:02.549Z,94374.94
2023-03-05T11:48:35.246Z,94371.81
2023-03-05T11:51:08.528Z,94378.25
2023-03-05T11:53:37.360Z,94370.75
2023-03-05T11:56:35.013Z,94364.25
2023-03-05T11:59:34.936Z,94365.22
2023-03-05T12:02:01.933Z,94344.03
2023-03-05T12:04:32.706Z,94345.69
2023-03-05T12:07:04.309Z,94348.59
2023-03-05T12:09:42.204Z,94333.56
2023-03-05T12:13:02.607Z,94337.38
2023-03-05T12:16:05.006Z,94336.41
2023-03-05T12:19:08.156Z,94332.72
2023-03-05T12:21:43.350Z,94326.34
2023-03-05T12:24:28.002Z,94324.91
2023-03-05T12:27:08.516Z,94326.06
2023-03-05T12:29:52.012Z,94319.56
2023-03-05T12:32:34.124Z,94318.91
2023-03-05T12:35:06.609Z,94314.97
2023-03-05T12:37:33.885Z,94310.13
2023-03-05T12:40:19.923Z,94309.75
2023-03-05T12:42:48.138Z,94308.59
2023-03-05T12:45:16.388Z,94302.56
2023-03-05T12:47:45.367Z,94278.16
2023-03-05T12:50:27.390Z,94294.91
2023-03-05T12:52:56.218Z,94290.28
2023-03-05T12:55:33.713Z,94293.50
2023-03-05T12:58:23.978Z,94269.16
2023-03-05T13:01:02.700Z,94273.63
2023-03-05T13:03:35.641Z,94277.72
2023-03-05T13:06:08.302Z,94277.34
2023-03-05T13:08:37.482Z,94288.16
2023-03-05T13:11:08.416Z,94279.22
2023-03-05T13:13:43.492Z,94276.91
2023-03-05T13:16:25.134Z,94279.56
2023-03-05T13:18:54.254Z,94284.13
2023-03-05T13:21:27.153Z,94281.22
2023-03-05T13:23:59.571Z,94280.88
2023-03-05T13:26:38.366Z,94278.28
2023-03-05T13:29:14.340Z,94276.69
2023-03-05T13:31:45.142Z,94278.59
2023-03-05T13:34:20.713Z,94279.63
2023-03-05T13:36:54.739Z,94262.69
2023-03-05T13:39:26.257Z,94268.75
2023-03-05T13:42:15.821Z,94273.75
2023-03-05T13:44:42.938Z,94269.81
2023-03-05T13:47:19.034Z,94276.28
2023-03-05T13:49:47.542Z,94283.31
2023-03-05T13:55:19.309Z,94273.06
2023-03-05T13:57:51.126Z,94274.56
2023-03-05T14:00:39.821Z,94276.69
2023-03-05T14:03:22.877Z,94275.75
2023-03-05T14:05:53.208Z,94268.41
2023-03-05T14:08:26.681Z,94279.41
2023-03-05T14:11:15.846Z,94273.66
2023-03-05T14:13:44.041Z,94270.63
2023-03-05T14:16:14.887Z,94275.16
2023-03-05T14:19:00.535Z,94281.66
2023-03-05T14:21:44.280Z,94278.59
2023-03-05T14:24:23.737Z,94280.19
2023-03-05T14:26:58.584Z,94278.59
2023-03-05T14:29:27.614Z,94283.75
2023-03-05T14:31:57.369Z,94281.50
2023-03-05T14:34:32.382Z,94276.69
2023-03-05T14:37:03.651Z,94288.97
2023-03-05T14:39:41.424Z,94275.75
2023-03-05T14:42:28.297Z,94282.22
2023-03-05T14:44:56.901Z,94283.84
2023-03-05T14:47:24.903Z,94282.25
2023-03-05T14:49:52.064Z,94275.50
2023-03-05T14:52:21.195Z,94275.19
2023-03-05T14:54:48.558Z,94285.34
2023-03-05T14:57:21.257Z,94282.78
2023-03-05T14:59:48.523Z,94267.19
2023-03-05T15:02:19.842Z,94273.59
2023-03-05T15:04:47.681Z,94274.22
2023-03-05T15:07:21.698Z,94278.75
2023-03-05T15:09:48.714Z,94280.69
2023-03-05T15:12:16.665Z,94282.00
2023-03-05T15:14:44.091Z,94282.66
2023-03-05T15:17:17.847Z,94282.34
2023-03-05T15:19:46.064Z,94277.06
2023-03-05T15:22:14.170Z,94277.41
2023-03-05T15:24:41.822Z,94285.28
2023-03-05T15:27:09.390Z,94282.72
2023-03-05T15:29:36.228Z,94277.72
2023-03-05T15:32:05.087Z,94271.78
2023-03-05T15:34:34.397Z,94274.53
2023-03-05T15:37:02.847Z,94288.53
2023-03-05T15:39:30.118Z,94280.50
2023-03-05T15:41:58.172Z,94287.59
2023-03-05T15:44:25.422Z,94293.41
2023-03-05T15:46:52.456Z,94285.16
2023-03-05T15:49:23.358Z,94285.53
2023-03-05T15:51:51.263Z,94292.44
2023-03-05T15:54:19.610Z,94291.94
2023-03-05T15:56:46.693Z,94298.56
2023-03-05T15:59:14.512Z,94298.53
2023-03-05T16:01:48.230Z,94292.41
2023-03-05T16:04:16.576Z,94302.72
2023-03-05T16:06:46.360Z,94308.84
2023-03-05T16:09:14.077Z,94322.81
2023-03-05T16:11:48.099Z,94303.66
2023-03-05T16:14:20.089Z,94318.47
2023-03-05T16:16:48.006Z,94308.81
2023-03-05T16:19:18.976Z,94319.41
2023-03-05T16:21:46.821Z,94311.34
2023-03-05T16:24:16.060Z,94319.38
2023-03-05T16:26:43.483Z,94319.53
2023-03-05T16:29:11.874Z,94319.34
2023-03-05T16:31:43.300Z,94318.69
2023-03-05T16:34:14.225Z,94325.94
2023-03-05T16:36:49.048Z,94314.16
2023-03-05T16:39:16.051Z,94317.97
2023-03-05T16:41:42.957Z,94323.44
2023-03-05T16:44:11.053Z,94329.66
2023-03-05T16:46:39.038Z,94340.25
2023-03-05T16:49:05.996Z,94342.81
2023-03-05T16:51:33.082Z,94338.09
2023-03-05T16:54:02.030Z,94349.63
2023-03-05T16:56:28.989Z,94344.78
2023-03-05T16:58:56.642Z,94350.34
2023-03-05T17:01:24.449Z,94361.44
2023-03-05T17:03:52.705Z,94360.75
2023-03-05T17:06:28.646Z,94366.63
2023-03-05T17:08:56.564Z,94370.88
2023-03-05T17:11:25.995Z,94383.44
2023-03-05T17:13:54.082Z,94378.44
2023-03-05T17:16:22.348Z,94383.25
2023-03-05T17:18:49.577Z,94386.91
2023-03-05T17:21:16.657Z,94376.13
2023-03-05T17:23:45.476Z,94389.41
2023-03-05T17:26:15.557Z,94390.75
2023-03-05T17:28:44.500Z,94392.22
2023-03-05T17:31:12.833Z,94396.31
2023-03-05T17:33:41.762Z,94396.88
2023-03-05T17:36:18.394Z,94400.72
2023-03-05T17:38:46.646Z,94401.81
2023-03-05T17:41:14.614Z,94409.66
2023-03-05T17:43:41.954Z,94386.13
2023-03-05T17:46:09.123Z,94408.06
2023-03-05T17:48:39.452Z,94397.69
2023-03-05T17:51:07.905Z,94412.47
2023-03-05T17:53:35.623Z,94406.00
2023-03-05T17:56:07.094Z,94408.19
2023-03-05T17:58:34.041Z,94419.91
2023-03-05T18:01:01.003Z,94410.66
2023-03-05T18:03:28.070Z,94420.91
2023-03-05T18:05:55.037Z,94413.53
2023-03-05T18:08:22.022Z,94424.13
2023-03-05T18:10:49.305Z,94417.97
2023-03-05T18:13:16.744Z,94428.81
2023-03-05T18:15:47.900Z,94419.50
2023-03-05T18:18:18.957Z,94419.09
2023-03-05T18:20:46.427Z,94419.03
2023-03-05T18:23:13.350Z,94425.09
2023-03-05T18:25:40.302Z,94437.25
2023-03-05T18:28:13.179Z,94431.88
2023-03-05T18:30:41.569Z,94438.91
2023-03-05T18:33:13.828Z,94433.41
2023-03-05T18:35:40.758Z,94440.97
2023-03-05T18:38:08.189Z,94427.50
2023-03-05T18:40:37.308Z,94442.47
2023-03-05T18:43:05.484Z,94451.63
2023-03-05T18:45:34.357Z,94455.16
2023-03-05T18:48:01.838Z,94453.00
2023-03-05T18:50:29.669Z,94454.09
2023-03-05T18:52:56.784Z,94447.91
2023-03-05T18:55:27.192Z,94453.84
2023-03-05T18:57:54.336Z,94459.78
2023-03-05T19:00:24.348Z,94457.09
2023-03-05T19:02:51.811Z,94463.88
2023-03-05T19:05:19.429Z,94459.41
2023-03-05T19:07:47.256Z,94472.50
2023-03-05T19:10:15.724Z,94466.84
2023-03-05T19:13:05.773Z,94471.44
2023-03-05T19:15:43.229Z,94471.69
2023-03-05T19:18:10.384Z,94460.66
2023-03-05T19:20:37.757Z,94467.13
2023-03-05T19:23:04.603Z,94473.34
2023-03-05T19:25:31.849Z,94465.00
2023-03-05T19:27:58.659Z,94478.59
2023-03-05T19:30:25.564Z,94473.75
2023-03-05T19:32:52.422Z,94479.41
2023-03-05T19:35:19.357Z,94480.63
2023-03-05T19:37:46.673Z,94467.44
2023-03-05T19:40:15.077Z,94483.75
2023-03-05T19:42:42.395Z,94480.09
2023-03-05T19:45:10.134Z,94483.88
2023-03-05T19:47:37.124Z,94480.09
2023-03-05T19:50:05.617Z,94480.91
2023-03-05T19:52:33.565Z,94484.41
2023-03-05T19:55:00.818Z,94481.28
2023-03-05T19:57:27.767Z,94482.25
2023-03-05T19:59:54.573Z,94484.81
2023-03-05T20:02:22.066Z,94489.53
2023-03-05T20:04:49.648Z,94484.69
2023-03-05T20:07:16.965Z,94489.00
2023-03-05T20:09:43.969Z,94480.88
2023-03-05T20:12:10.923Z,94481.69
2023-03-05T20:14:38.049Z,94483.16
2023-03-05T20:17:04.905Z,94494.63
2023-03-05T20:19:32.004Z,94481.56
2023-03-05T20:22:02.128Z,94492.19
2023-03-05T20:24:29.075Z,94471.84
2023-03-05T20:26:56.008Z,94489.50
2023-03-05T20:29:22.872Z,94491.63
2023-03-05T20:31:50.380Z,94483.38
2023-03-05T20:34:19.055Z,94495.63
2023-03-05T20:36:46.726Z,94480.28
2023-03-05T20:39:13.708Z,94487.56
2023-03-05T20:41:40.986Z,94478.22
2023-03-05T20:44:08.759Z,94489.28
2023-03-05T20:46:49.771Z,94499.50
2023-03-05T20:49:19.931Z,94489.28
2023-03-05T20:51:49.321Z,94496.38
2023-03-05T20:54:16.318Z,94488.31
2023-03-05T20:56:44.009Z,94488.94
2023-03-05T20:59:11.490Z,94479.09
2023-03-05T21:01:41.018Z,94481.53
2023-03-05T21:04:08.963Z,94483.69
2023-03-05T21:06:36.403Z,94480.94
2023-03-05T21:09:04.216Z,94488.88
2023-03-05T21:11:32.195Z,94477.28
2023-03-05T21:13:59.508Z,94488.19
2023-03-05T21:16:27.551Z,94483.06
2023-03-05T21:18:56.131Z,94476.59
2023-03-05T21:21:24.098Z,94469.63
2023-03-05T21:23:51.386Z,94464.34
2023-03-05T21:26:18.292Z,94481.19
2023-03-05T21:28:46.578Z,94469.28
2023-03-05T21:31:23.402Z,94462.25
2023-03-05T21:33:51.524Z,94468.69
2023-03-05T21:36:18.998Z,94461.69
2023-03-05T21:38:47.294Z,94468.44
2023-03-05T21:41:14.508Z,94471.66
2023-03-05T21:43:43.175Z,94474.22
2023-03-05T21:46:11.368Z,94474.22
2023-03-05T21:48:38.487Z,94471.78
2023-03-05T21:51:51.198Z,94473.53
2023-03-05T21:54:18.096Z,94457.09
2023-03-05T21:56:45.899Z,94458.84
2023-03-05T21:59:12.939Z,94454.78
2023-03-05T22:01:39.804Z,94457.88
2023-03-05T22:04:06.694Z,94471.03
2023-03-05T22:06:33.893Z,94457.06
2023-03-05T22:09:01.216Z,94468.06
2023-03-05T22:11:29.488Z,94463.09
2023-03-05T22:13:57.156Z,94465.09
2023-03-05T22:16:26.322Z,94459.84
2023-03-05T22:18:53.576Z,94462.66
2023-03-05T22:21:25.392Z,94455.59
2023-03-05T22:23:54.344Z,94450.00
2023-03-05T22:26:21.541Z,94455.00
2023-03-05T22:28:48.384Z,94453.50
2023-03-05T22:31:27.462Z,94459.84
2023-03-05T22:33:54.676Z,94466.47
2023-03-05T22:36:21.647Z,94459.03
2023-03-05T22:38:48.528Z,94453.25
2023-03-05T22:41:19.842Z,94465.41
2023-03-05T22:43:47.526Z,94459.47
2023-03-05T22:46:15.624Z,94465.53
2023-03-05T22:48:43.428Z,94453.75
2023-03-05T22:51:11.478Z,94465.09
2023-03-05T22:53:39.594Z,94465.09
2023-03-05T22:56:12.752Z,94464.41
2023-03-05T22:58:40.263Z,94470.44
2023-03-05T23:01:18.152Z,94477.16
2023-03-05T23:04:11.468Z,94469.75
2023-03-05T23:06:51.238Z,94476.97
2023-03-05T23:09:18.139Z,94467.97
2023-03-05T23:11:44.992Z,94475.50
2023-03-05T23:14:12.067Z,94468.19
2023-03-05T23:16:39.140Z,94471.75
2023-03-05T23:19:05.995Z,94476.84
2023-03-05T23:21:33.103Z,94466.09
2023-03-05T23:24:00.034Z,94478.47
2023-03-05T23:26:26.934Z,94485.06
2023-03-05T23:28:53.772Z,94494.59
2023-03-05T23:31:20.800Z,94496.03
2023-03-05T23:33:47.684Z,94502.50
2023-03-05T23:36:14.586Z,94503.84
2023-03-05T23:38:41.838Z,94488.19
2023-03-05T23:41:09.690Z,94499.09
2023-03-05T23:43:36.587Z,94505.00
2023-03-05T23:46:03.505Z,94503.63
2023-03-05T23:48:31.147Z,94507.91
2023-03-05T23:50:58.115Z,94511.66
2023-03-05T23:53:27.825Z,94509.09
2023-03-05T23:55:56.069Z,94508.28
2023-03-05T23:58:24.146Z,94508.16
